sensor_id;sensor_type;location;lat;lon;timestamp;temperature;humidity
21473;DHT22;10898;48.072;11.682;2022-07-22T00:00:46;19.30;99.90
21473;DHT22;10898;48.072;11.682;2022-07-22T00:02:48;19.30;99.90
21473;DHT22;10898;48.072;11.682;2022-07-22T00:04:50;19.30;99.90
21473;DHT22;10898;48.072;11.682;2022-07-22T00:06:52;19.30;99.90
21473;DHT22;10898;48.072;11.682;2022-07-22T00:08:54;19.30;99.90
21473;DHT22;10898;48.072;11.682;2022-07-22T00:10:57;19.20;99.90
21473;DHT22;10898;48.072;11.682;2022-07-22T00:12:59;19.20;99.90
21473;DHT22;10898;48.072;11.682;2022-07-22T00:15:00;19.20;99.90
21473;DHT22;10898;48.072;11.682;2022-07-22T00:17:02;19.10;99.90
21473;DHT22;10898;48.072;11.682;2022-07-22T00:19:04;19.10;99.90
21473;DHT22;10898;48.072;11.682;2022-07-22T00:21:06;19.10;99.90
21473;DHT22;10898;48.072;11.682;2022-07-22T00:23:12;19.10;99.90
21473;DHT22;10898;48.072;11.682;2022-07-22T00:25:14;19.00;99.90
21473;DHT22;10898;48.072;11.682;2022-07-22T00:27:15;19.00;99.90
21473;DHT22;10898;48.072;11.682;2022-07-22T00:29:17;19.00;99.90
21473;DHT22;10898;48.072;11.682;2022-07-22T00:31:19;19.00;99.90
21473;DHT22;10898;48.072;11.682;2022-07-22T00:33:21;18.90;99.90
21473;DHT22;10898;48.072;11.682;2022-07-22T00:35:23;18.90;99.90
21473;DHT22;10898;48.072;11.682;2022-07-22T00:37:25;18.90;99.90
21473;DHT22;10898;48.072;11.682;2022-07-22T00:39:27;18.80;99.90
21473;DHT22;10898;48.072;11.682;2022-07-22T00:41:29;18.80;99.90
21473;DHT22;10898;48.072;11.682;2022-07-22T00:45:51;18.80;99.90
21473;DHT22;10898;48.072;11.682;2022-07-22T00:47:53;18.80;99.90
21473;DHT22;10898;48.072;11.682;2022-07-22T00:49:55;18.70;99.90
21473;DHT22;10898;48.072;11.682;2022-07-22T00:51:57;18.70;99.90
21473;DHT22;10898;48.072;11.682;2022-07-22T00:53:59;18.70;99.90
21473;DHT22;10898;48.072;11.682;2022-07-22T00:56:02;18.70;99.90
21473;DHT22;10898;48.072;11.682;2022-07-22T00:58:04;18.60;99.90
21473;DHT22;10898;48.072;11.682;2022-07-22T01:00:07;18.60;99.90
21473;DHT22;10898;48.072;11.682;2022-07-22T01:02:10;18.50;99.90
21473;DHT22;10898;48.072;11.682;2022-07-22T01:04:12;18.60;99.90
21473;DHT22;10898;48.072;11.682;2022-07-22T01:06:14;18.50;99.90
21473;DHT22;10898;48.072;11.682;2022-07-22T01:08:16;18.50;99.90
21473;DHT22;10898;48.072;11.682;2022-07-22T01:10:18;18.50;99.90
21473;DHT22;10898;48.072;11.682;2022-07-22T01:12:19;18.50;99.90
21473;DHT22;10898;48.072;11.682;2022-07-22T01:14:21;18.50;99.90
21473;DHT22;10898;48.072;11.682;2022-07-22T01:16:26;18.50;99.90
21473;DHT22;10898;48.072;11.682;2022-07-22T01:18:27;18.50;99.90
21473;DHT22;10898;48.072;11.682;2022-07-22T01:20:29;18.40;99.90
21473;DHT22;10898;48.072;11.682;2022-07-22T01:22:31;18.50;99.90
21473;DHT22;10898;48.072;11.682;2022-07-22T01:24:34;18.40;99.90
21473;DHT22;10898;48.072;11.682;2022-07-22T01:26:36;18.40;99.90
21473;DHT22;10898;48.072;11.682;2022-07-22T01:28:38;18.40;99.90
21473;DHT22;10898;48.072;11.682;2022-07-22T01:30:40;18.40;99.90
21473;DHT22;10898;48.072;11.682;2022-07-22T01:32:42;18.40;99.90
21473;DHT22;10898;48.072;11.682;2022-07-22T01:34:44;18.40;99.90
21473;DHT22;10898;48.072;11.682;2022-07-22T01:36:46;18.30;99.90
21473;DHT22;10898;48.072;11.682;2022-07-22T01:38:47;18.30;99.90
21473;DHT22;10898;48.072;11.682;2022-07-22T01:40:49;18.30;99.90
21473;DHT22;10898;48.072;11.682;2022-07-22T01:42:51;18.30;99.90
21473;DHT22;10898;48.072;11.682;2022-07-22T01:44:53;18.30;99.90
21473;DHT22;10898;48.072;11.682;2022-07-22T01:46:55;18.30;99.90
21473;DHT22;10898;48.072;11.682;2022-07-22T01:48:57;18.20;99.90
21473;DHT22;10898;48.072;11.682;2022-07-22T01:50:59;18.30;99.90
21473;DHT22;10898;48.072;11.682;2022-07-22T01:53:01;18.20;99.90
21473;DHT22;10898;48.072;11.682;2022-07-22T01:55:04;18.20;99.90
21473;DHT22;10898;48.072;11.682;2022-07-22T01:57:06;18.20;99.90
21473;DHT22;10898;48.072;11.682;2022-07-22T01:59:08;18.10;99.90
21473;DHT22;10898;48.072;11.682;2022-07-22T02:01:10;18.10;99.90
21473;DHT22;10898;48.072;11.682;2022-07-22T02:03:11;18.10;99.90
21473;DHT22;10898;48.072;11.682;2022-07-22T02:05:13;18.10;99.90
21473;DHT22;10898;48.072;11.682;2022-07-22T02:07:15;18.00;99.90
21473;DHT22;10898;48.072;11.682;2022-07-22T02:09:17;18.00;99.90
21473;DHT22;10898;48.072;11.682;2022-07-22T02:11:19;18.00;99.90
21473;DHT22;10898;48.072;11.682;2022-07-22T02:13:21;18.00;99.90
21473;DHT22;10898;48.072;11.682;2022-07-22T02:15:23;18.00;99.90
21473;DHT22;10898;48.072;11.682;2022-07-22T02:17:25;18.00;99.90
21473;DHT22;10898;48.072;11.682;2022-07-22T02:19:26;18.00;99.90
21473;DHT22;10898;48.072;11.682;2022-07-22T02:21:29;18.00;99.90
21473;DHT22;10898;48.072;11.682;2022-07-22T02:23:30;18.00;99.90
21473;DHT22;10898;48.072;11.682;2022-07-22T02:25:33;18.00;99.90
21473;DHT22;10898;48.072;11.682;2022-07-22T02:27:35;18.00;99.90
21473;DHT22;10898;48.072;11.682;2022-07-22T02:29:36;18.00;99.90
21473;DHT22;10898;48.072;11.682;2022-07-22T02:31:38;17.90;99.90
21473;DHT22;10898;48.072;11.682;2022-07-22T02:33:40;17.90;99.90
21473;DHT22;10898;48.072;11.682;2022-07-22T02:35:42;17.90;99.90
21473;DHT22;10898;48.072;11.682;2022-07-22T02:37:44;17.90;99.90
21473;DHT22;10898;48.072;11.682;2022-07-22T02:39:47;17.80;99.90
21473;DHT22;10898;48.072;11.682;2022-07-22T02:41:49;17.80;99.90
21473;DHT22;10898;48.072;11.682;2022-07-22T02:43:51;17.80;99.90
21473;DHT22;10898;48.072;11.682;2022-07-22T02:45:55;17.80;99.90
21473;DHT22;10898;48.072;11.682;2022-07-22T02:47:57;17.80;99.90
21473;DHT22;10898;48.072;11.682;2022-07-22T02:49:59;17.80;99.90
21473;DHT22;10898;48.072;11.682;2022-07-22T02:52:01;17.70;99.90
21473;DHT22;10898;48.072;11.682;2022-07-22T02:54:03;17.70;99.90
21473;DHT22;10898;48.072;11.682;2022-07-22T02:56:05;17.70;99.90
21473;DHT22;10898;48.072;11.682;2022-07-22T02:58:07;17.70;99.90
21473;DHT22;10898;48.072;11.682;2022-07-22T03:00:10;17.70;99.90
21473;DHT22;10898;48.072;11.682;2022-07-22T03:02:13;17.60;99.90
21473;DHT22;10898;48.072;11.682;2022-07-22T03:04:15;17.60;99.90
21473;DHT22;10898;48.072;11.682;2022-07-22T03:06:17;17.60;99.90
21473;DHT22;10898;48.072;11.682;2022-07-22T03:08:18;17.50;99.90
21473;DHT22;10898;48.072;11.682;2022-07-22T03:10:20;17.50;99.90
21473;DHT22;10898;48.072;11.682;2022-07-22T03:12:22;17.50;99.90
21473;DHT22;10898;48.072;11.682;2022-07-22T03:14:24;17.50;99.90
21473;DHT22;10898;48.072;11.682;2022-07-22T03:16:26;17.50;99.90
21473;DHT22;10898;48.072;11.682;2022-07-22T03:18:28;17.50;99.90
21473;DHT22;10898;48.072;11.682;2022-07-22T03:20:30;17.40;99.90
21473;DHT22;10898;48.072;11.682;2022-07-22T03:22:31;17.40;99.90
21473;DHT22;10898;48.072;11.682;2022-07-22T03:24:34;17.40;99.90
21473;DHT22;10898;48.072;11.682;2022-07-22T03:26:36;17.40;99.90
21473;DHT22;10898;48.072;11.682;2022-07-22T03:28:38;17.40;99.90
21473;DHT22;10898;48.072;11.682;2022-07-22T03:30:40;17.40;99.90
21473;DHT22;10898;48.072;11.682;2022-07-22T03:32:42;17.40;99.90
21473;DHT22;10898;48.072;11.682;2022-07-22T03:34:47;17.40;99.90
21473;DHT22;10898;48.072;11.682;2022-07-22T03:36:48;17.30;99.90
21473;DHT22;10898;48.072;11.682;2022-07-22T03:38:50;17.30;99.90
21473;DHT22;10898;48.072;11.682;2022-07-22T03:40:52;17.40;99.90
21473;DHT22;10898;48.072;11.682;2022-07-22T03:42:54;17.30;99.90
21473;DHT22;10898;48.072;11.682;2022-07-22T03:44:56;17.30;99.90
21473;DHT22;10898;48.072;11.682;2022-07-22T03:46:58;17.30;99.90
21473;DHT22;10898;48.072;11.682;2022-07-22T03:49:00;17.30;99.90
21473;DHT22;10898;48.072;11.682;2022-07-22T03:51:02;17.30;99.90
21473;DHT22;10898;48.072;11.682;2022-07-22T03:53:04;17.30;99.90
21473;DHT22;10898;48.072;11.682;2022-07-22T03:55:06;17.30;99.90
21473;DHT22;10898;48.072;11.682;2022-07-22T03:57:08;17.20;99.90
21473;DHT22;10898;48.072;11.682;2022-07-22T03:59:10;17.20;99.90
21473;DHT22;10898;48.072;11.682;2022-07-22T04:01:12;17.20;99.90
21473;DHT22;10898;48.072;11.682;2022-07-22T04:03:14;17.20;99.90
21473;DHT22;10898;48.072;11.682;2022-07-22T04:05:16;17.20;99.90
21473;DHT22;10898;48.072;11.682;2022-07-22T04:07:18;17.20;99.90
21473;DHT22;10898;48.072;11.682;2022-07-22T04:09:20;17.20;99.90
21473;DHT22;10898;48.072;11.682;2022-07-22T04:11:22;17.20;99.90
21473;DHT22;10898;48.072;11.682;2022-07-22T04:13:23;17.20;99.90
21473;DHT22;10898;48.072;11.682;2022-07-22T04:15:25;17.20;99.90
21473;DHT22;10898;48.072;11.682;2022-07-22T04:17:27;17.20;99.90
21473;DHT22;10898;48.072;11.682;2022-07-22T04:19:29;17.20;99.90
21473;DHT22;10898;48.072;11.682;2022-07-22T04:21:31;17.30;99.90
21473;DHT22;10898;48.072;11.682;2022-07-22T04:23:33;17.30;99.90
21473;DHT22;10898;48.072;11.682;2022-07-22T04:25:35;17.30;99.90
21473;DHT22;10898;48.072;11.682;2022-07-22T04:27:37;17.30;99.90
21473;DHT22;10898;48.072;11.682;2022-07-22T04:29:38;17.30;99.90
21473;DHT22;10898;48.072;11.682;2022-07-22T04:31:40;17.40;99.90
21473;DHT22;10898;48.072;11.682;2022-07-22T04:33:42;17.40;99.90
21473;DHT22;10898;48.072;11.682;2022-07-22T04:35:44;17.40;99.90
21473;DHT22;10898;48.072;11.682;2022-07-22T04:37:46;17.40;99.90
21473;DHT22;10898;48.072;11.682;2022-07-22T04:39:48;17.50;99.90
21473;DHT22;10898;48.072;11.682;2022-07-22T04:41:50;17.50;99.90
21473;DHT22;10898;48.072;11.682;2022-07-22T04:43:51;17.50;99.90
21473;DHT22;10898;48.072;11.682;2022-07-22T04:45:54;17.60;99.90
21473;DHT22;10898;48.072;11.682;2022-07-22T04:47:56;17.60;99.90
21473;DHT22;10898;48.072;11.682;2022-07-22T04:49:58;17.60;99.90
21473;DHT22;10898;48.072;11.682;2022-07-22T04:52:00;17.60;99.90
21473;DHT22;10898;48.072;11.682;2022-07-22T04:54:02;17.70;99.90
21473;DHT22;10898;48.072;11.682;2022-07-22T04:56:07;17.70;99.90
21473;DHT22;10898;48.072;11.682;2022-07-22T04:58:09;17.70;99.90
21473;DHT22;10898;48.072;11.682;2022-07-22T05:00:17;17.70;99.90
21473;DHT22;10898;48.072;11.682;2022-07-22T05:02:19;17.80;99.90
21473;DHT22;10898;48.072;11.682;2022-07-22T05:04:21;17.90;99.90
21473;DHT22;10898;48.072;11.682;2022-07-22T05:06:23;17.90;99.90
21473;DHT22;10898;48.072;11.682;2022-07-22T05:08:25;17.90;99.90
21473;DHT22;10898;48.072;11.682;2022-07-22T05:10:27;18.00;99.90
21473;DHT22;10898;48.072;11.682;2022-07-22T05:12:29;18.00;99.90
21473;DHT22;10898;48.072;11.682;2022-07-22T05:14:31;18.10;99.90
21473;DHT22;10898;48.072;11.682;2022-07-22T05:16:34;18.10;99.90
21473;DHT22;10898;48.072;11.682;2022-07-22T05:18:36;18.20;99.90
21473;DHT22;10898;48.072;11.682;2022-07-22T05:20:38;18.20;99.90
21473;DHT22;10898;48.072;11.682;2022-07-22T05:22:40;18.30;99.90
21473;DHT22;10898;48.072;11.682;2022-07-22T05:24:42;18.30;99.90
21473;DHT22;10898;48.072;11.682;2022-07-22T05:26:44;18.40;99.90
21473;DHT22;10898;48.072;11.682;2022-07-22T05:28:46;18.40;99.90
21473;DHT22;10898;48.072;11.682;2022-07-22T05:30:48;18.50;99.90
21473;DHT22;10898;48.072;11.682;2022-07-22T05:32:50;18.50;99.90
21473;DHT22;10898;48.072;11.682;2022-07-22T05:34:52;18.60;99.90
21473;DHT22;10898;48.072;11.682;2022-07-22T05:36:53;18.70;99.90
21473;DHT22;10898;48.072;11.682;2022-07-22T05:38:55;18.70;99.90
21473;DHT22;10898;48.072;11.682;2022-07-22T05:40:58;18.80;99.90
21473;DHT22;10898;48.072;11.682;2022-07-22T05:43:00;18.80;99.90
21473;DHT22;10898;48.072;11.682;2022-07-22T05:45:02;18.90;99.90
21473;DHT22;10898;48.072;11.682;2022-07-22T05:47:04;19.00;99.90
21473;DHT22;10898;48.072;11.682;2022-07-22T05:49:06;19.10;99.90
21473;DHT22;10898;48.072;11.682;2022-07-22T05:51:12;19.10;99.90
21473;DHT22;10898;48.072;11.682;2022-07-22T05:53:14;19.20;99.90
21473;DHT22;10898;48.072;11.682;2022-07-22T05:55:17;19.30;99.90
21473;DHT22;10898;48.072;11.682;2022-07-22T05:57:18;19.40;99.90
21473;DHT22;10898;48.072;11.682;2022-07-22T05:59:20;19.40;99.90
21473;DHT22;10898;48.072;11.682;2022-07-22T06:01:22;19.50;99.90
21473;DHT22;10898;48.072;11.682;2022-07-22T06:03:24;19.60;99.90
21473;DHT22;10898;48.072;11.682;2022-07-22T06:05:26;19.70;99.90
21473;DHT22;10898;48.072;11.682;2022-07-22T06:07:37;19.80;99.90
21473;DHT22;10898;48.072;11.682;2022-07-22T06:09:39;19.80;99.90
21473;DHT22;10898;48.072;11.682;2022-07-22T06:11:41;19.90;99.90
21473;DHT22;10898;48.072;11.682;2022-07-22T06:13:43;20.00;99.90
21473;DHT22;10898;48.072;11.682;2022-07-22T06:15:45;20.10;99.90
21473;DHT22;10898;48.072;11.682;2022-07-22T06:17:47;20.20;99.90
21473;DHT22;10898;48.072;11.682;2022-07-22T06:19:49;20.20;99.90
21473;DHT22;10898;48.072;11.682;2022-07-22T06:21:50;20.30;99.90
21473;DHT22;10898;48.072;11.682;2022-07-22T06:23:52;20.40;99.90
21473;DHT22;10898;48.072;11.682;2022-07-22T06:25:54;20.50;99.90
21473;DHT22;10898;48.072;11.682;2022-07-22T06:27:56;20.50;99.90
21473;DHT22;10898;48.072;11.682;2022-07-22T06:29:58;20.60;99.90
21473;DHT22;10898;48.072;11.682;2022-07-22T06:32:00;20.70;99.90
21473;DHT22;10898;48.072;11.682;2022-07-22T06:34:02;20.80;99.90
21473;DHT22;10898;48.072;11.682;2022-07-22T06:36:07;20.80;99.90
21473;DHT22;10898;48.072;11.682;2022-07-22T06:38:09;20.90;99.90
21473;DHT22;10898;48.072;11.682;2022-07-22T06:40:29;21.00;99.90
21473;DHT22;10898;48.072;11.682;2022-07-22T06:42:31;21.10;99.90
21473;DHT22;10898;48.072;11.682;2022-07-22T06:44:33;21.20;99.90
21473;DHT22;10898;48.072;11.682;2022-07-22T06:46:35;21.30;99.90
21473;DHT22;10898;48.072;11.682;2022-07-22T06:48:38;21.40;99.90
21473;DHT22;10898;48.072;11.682;2022-07-22T06:50:40;21.40;99.90
21473;DHT22;10898;48.072;11.682;2022-07-22T06:52:42;21.50;99.90
21473;DHT22;10898;48.072;11.682;2022-07-22T06:54:45;21.60;99.90
21473;DHT22;10898;48.072;11.682;2022-07-22T06:56:46;21.70;99.90
21473;DHT22;10898;48.072;11.682;2022-07-22T06:58:48;21.80;99.90
21473;DHT22;10898;48.072;11.682;2022-07-22T07:00:50;21.90;99.90
21473;DHT22;10898;48.072;11.682;2022-07-22T07:02:52;21.90;99.90
21473;DHT22;10898;48.072;11.682;2022-07-22T07:05:14;22.00;99.90
21473;DHT22;10898;48.072;11.682;2022-07-22T07:07:20;22.10;99.90
21473;DHT22;10898;48.072;11.682;2022-07-22T07:09:23;22.20;99.90
21473;DHT22;10898;48.072;11.682;2022-07-22T07:11:26;22.20;99.90
21473;DHT22;10898;48.072;11.682;2022-07-22T07:13:28;22.30;99.90
21473;DHT22;10898;48.072;11.682;2022-07-22T07:15:29;22.40;99.90
21473;DHT22;10898;48.072;11.682;2022-07-22T07:17:31;22.40;99.90
21473;DHT22;10898;48.072;11.682;2022-07-22T07:19:33;22.50;99.90
21473;DHT22;10898;48.072;11.682;2022-07-22T07:21:35;22.60;99.90
21473;DHT22;10898;48.072;11.682;2022-07-22T07:23:37;22.60;99.90
21473;DHT22;10898;48.072;11.682;2022-07-22T07:25:39;22.70;99.90
21473;DHT22;10898;48.072;11.682;2022-07-22T07:27:41;22.80;99.90
21473;DHT22;10898;48.072;11.682;2022-07-22T07:29:43;22.90;99.90
21473;DHT22;10898;48.072;11.682;2022-07-22T07:31:46;22.90;99.90
21473;DHT22;10898;48.072;11.682;2022-07-22T07:33:48;23.00;99.90
21473;DHT22;10898;48.072;11.682;2022-07-22T07:35:51;23.10;99.90
21473;DHT22;10898;48.072;11.682;2022-07-22T07:37:53;23.20;99.90
21473;DHT22;10898;48.072;11.682;2022-07-22T07:39:55;23.30;99.90
21473;DHT22;10898;48.072;11.682;2022-07-22T07:41:57;23.40;99.90
21473;DHT22;10898;48.072;11.682;2022-07-22T07:43:59;23.50;99.90
21473;DHT22;10898;48.072;11.682;2022-07-22T07:46:01;23.60;99.90
21473;DHT22;10898;48.072;11.682;2022-07-22T07:48:03;23.70;99.90
21473;DHT22;10898;48.072;11.682;2022-07-22T07:50:05;23.80;99.90
21473;DHT22;10898;48.072;11.682;2022-07-22T07:52:09;23.80;99.90
21473;DHT22;10898;48.072;11.682;2022-07-22T07:54:13;23.90;99.70
21473;DHT22;10898;48.072;11.682;2022-07-22T07:56:17;23.90;98.90
21473;DHT22;10898;48.072;11.682;2022-07-22T07:58:20;24.10;98.90
21473;DHT22;10898;48.072;11.682;2022-07-22T08:00:23;24.10;99.00
21473;DHT22;10898;48.072;11.682;2022-07-22T08:02:26;24.20;98.60
21473;DHT22;10898;48.072;11.682;2022-07-22T08:04:28;24.30;98.10
21473;DHT22;10898;48.072;11.682;2022-07-22T08:06:39;24.50;97.90
21473;DHT22;10898;48.072;11.682;2022-07-22T08:08:41;24.60;96.60
21473;DHT22;10898;48.072;11.682;2022-07-22T08:10:43;24.60;95.70
21473;DHT22;10898;48.072;11.682;2022-07-22T08:13:02;24.70;95.20
21473;DHT22;10898;48.072;11.682;2022-07-22T08:15:04;24.80;95.70
21473;DHT22;10898;48.072;11.682;2022-07-22T08:17:08;24.90;94.10
21473;DHT22;10898;48.072;11.682;2022-07-22T08:19:11;24.90;94.90
21473;DHT22;10898;48.072;11.682;2022-07-22T08:21:12;25.00;93.40
21473;DHT22;10898;48.072;11.682;2022-07-22T08:23:14;25.10;93.40
21473;DHT22;10898;48.072;11.682;2022-07-22T08:25:18;25.20;92.70
21473;DHT22;10898;48.072;11.682;2022-07-22T08:27:20;25.20;92.40
21473;DHT22;10898;48.072;11.682;2022-07-22T08:29:23;25.30;93.00
21473;DHT22;10898;48.072;11.682;2022-07-22T08:31:26;25.40;92.10
21473;DHT22;10898;48.072;11.682;2022-07-22T08:33:29;25.40;92.10
21473;DHT22;10898;48.072;11.682;2022-07-22T08:35:30;25.50;91.70
21473;DHT22;10898;48.072;11.682;2022-07-22T08:37:32;25.60;90.20
21473;DHT22;10898;48.072;11.682;2022-07-22T08:39:34;25.60;90.20
21473;DHT22;10898;48.072;11.682;2022-07-22T08:41:37;25.70;89.50
21473;DHT22;10898;48.072;11.682;2022-07-22T08:43:39;25.80;87.30
21473;DHT22;10898;48.072;11.682;2022-07-22T08:45:43;25.90;85.50
21473;DHT22;10898;48.072;11.682;2022-07-22T08:47:47;25.90;84.50
21473;DHT22;10898;48.072;11.682;2022-07-22T08:49:49;25.90;85.30
21473;DHT22;10898;48.072;11.682;2022-07-22T08:51:51;26.00;84.00
21473;DHT22;10898;48.072;11.682;2022-07-22T08:53:53;26.10;84.20
21473;DHT22;10898;48.072;11.682;2022-07-22T08:55:56;26.10;83.10
21473;DHT22;10898;48.072;11.682;2022-07-22T08:57:57;26.20;80.30
21473;DHT22;10898;48.072;11.682;2022-07-22T09:00:00;26.30;81.20
21473;DHT22;10898;48.072;11.682;2022-07-22T09:02:03;26.40;79.90
21473;DHT22;10898;48.072;11.682;2022-07-22T09:04:05;26.50;79.90
21473;DHT22;10898;48.072;11.682;2022-07-22T09:06:08;26.50;79.40
21473;DHT22;10898;48.072;11.682;2022-07-22T09:08:10;26.60;79.30
21473;DHT22;10898;48.072;11.682;2022-07-22T09:10:14;26.60;77.60
21473;DHT22;10898;48.072;11.682;2022-07-22T09:12:16;26.70;77.90
21473;DHT22;10898;48.072;11.682;2022-07-22T09:14:18;26.70;78.70
21473;DHT22;10898;48.072;11.682;2022-07-22T09:16:41;26.80;77.20
21473;DHT22;10898;48.072;11.682;2022-07-22T09:18:51;26.90;77.80
21473;DHT22;10898;48.072;11.682;2022-07-22T09:20:57;26.90;76.70
21473;DHT22;10898;48.072;11.682;2022-07-22T09:23:00;27.00;75.60
21473;DHT22;10898;48.072;11.682;2022-07-22T09:27:23;27.20;75.10
21473;DHT22;10898;48.072;11.682;2022-07-22T09:29:26;27.20;75.30
21473;DHT22;10898;48.072;11.682;2022-07-22T09:31:38;27.30;73.60
21473;DHT22;10898;48.072;11.682;2022-07-22T09:33:42;27.30;74.30
21473;DHT22;10898;48.072;11.682;2022-07-22T09:35:50;27.40;75.30
21473;DHT22;10898;48.072;11.682;2022-07-22T09:37:53;27.50;74.40
21473;DHT22;10898;48.072;11.682;2022-07-22T09:39:55;27.50;72.90
21473;DHT22;10898;48.072;11.682;2022-07-22T09:42:12;27.50;73.90
21473;DHT22;10898;48.072;11.682;2022-07-22T09:44:21;27.60;73.00
21473;DHT22;10898;48.072;11.682;2022-07-22T09:46:34;27.60;72.40
21473;DHT22;10898;48.072;11.682;2022-07-22T09:48:37;27.70;73.50
21473;DHT22;10898;48.072;11.682;2022-07-22T09:50:39;27.70;70.90
21473;DHT22;10898;48.072;11.682;2022-07-22T09:52:41;27.80;70.80
21473;DHT22;10898;48.072;11.682;2022-07-22T09:54:43;27.80;71.30
21473;DHT22;10898;48.072;11.682;2022-07-22T09:56:46;27.90;72.80
21473;DHT22;10898;48.072;11.682;2022-07-22T09:58:48;27.90;72.30
21473;DHT22;10898;48.072;11.682;2022-07-22T10:00:50;28.00;71.10
21473;DHT22;10898;48.072;11.682;2022-07-22T10:02:55;28.10;70.50
21473;DHT22;10898;48.072;11.682;2022-07-22T10:04:57;28.20;70.50
21473;DHT22;10898;48.072;11.682;2022-07-22T10:07:00;28.20;71.00
21473;DHT22;10898;48.072;11.682;2022-07-22T10:09:03;28.20;68.60
21473;DHT22;10898;48.072;11.682;2022-07-22T10:11:14;28.20;68.10
21473;DHT22;10898;48.072;11.682;2022-07-22T10:13:16;28.20;67.50
21473;DHT22;10898;48.072;11.682;2022-07-22T10:15:19;28.30;68.60
21473;DHT22;10898;48.072;11.682;2022-07-22T10:17:21;28.30;69.20
21473;DHT22;10898;48.072;11.682;2022-07-22T10:19:24;28.40;67.60
21473;DHT22;10898;48.072;11.682;2022-07-22T10:21:32;28.40;69.20
21473;DHT22;10898;48.072;11.682;2022-07-22T10:23:35;28.50;69.10
21473;DHT22;10898;48.072;11.682;2022-07-22T10:25:50;28.50;69.10
21473;DHT22;10898;48.072;11.682;2022-07-22T10:27:57;28.60;67.60
21473;DHT22;10898;48.072;11.682;2022-07-22T10:29:59;28.60;67.50
21473;DHT22;10898;48.072;11.682;2022-07-22T10:34:18;28.70;68.30
21473;DHT22;10898;48.072;11.682;2022-07-22T10:36:31;28.80;68.20
21473;DHT22;10898;48.072;11.682;2022-07-22T10:38:34;28.80;66.00
21473;DHT22;10898;48.072;11.682;2022-07-22T10:44:58;29.00;65.20
21473;DHT22;10898;48.072;11.682;2022-07-22T10:47:01;29.10;65.80
21473;DHT22;10898;48.072;11.682;2022-07-22T10:49:04;29.20;66.50
21473;DHT22;10898;48.072;11.682;2022-07-22T10:51:09;29.30;66.70
21473;DHT22;10898;48.072;11.682;2022-07-22T10:55:20;29.40;67.40
21473;DHT22;10898;48.072;11.682;2022-07-22T10:57:29;29.50;65.80
21473;DHT22;10898;48.072;11.682;2022-07-22T10:59:38;29.60;66.50
21473;DHT22;10898;48.072;11.682;2022-07-22T11:01:44;29.60;64.60
21473;DHT22;10898;48.072;11.682;2022-07-22T11:03:48;29.60;66.00
21473;DHT22;10898;48.072;11.682;2022-07-22T11:05:50;29.60;66.20
21473;DHT22;10898;48.072;11.682;2022-07-22T11:07:52;29.70;63.80
21473;DHT22;10898;48.072;11.682;2022-07-22T11:09:54;29.70;64.30
21473;DHT22;10898;48.072;11.682;2022-07-22T11:12:17;29.70;64.30
21473;DHT22;10898;48.072;11.682;2022-07-22T11:16:27;29.80;62.60
21473;DHT22;10898;48.072;11.682;2022-07-22T11:18:49;29.90;63.90
21473;DHT22;10898;48.072;11.682;2022-07-22T11:20:51;29.90;63.60
21473;DHT22;10898;48.072;11.682;2022-07-22T11:22:57;30.00;63.70
21473;DHT22;10898;48.072;11.682;2022-07-22T11:25:06;30.00;63.00
21473;DHT22;10898;48.072;11.682;2022-07-22T11:27:15;30.00;61.20
21473;DHT22;10898;48.072;11.682;2022-07-22T11:29:24;30.00;60.60
21473;DHT22;10898;48.072;11.682;2022-07-22T11:31:27;30.00;61.40
21473;DHT22;10898;48.072;11.682;2022-07-22T11:33:29;30.10;61.70
21473;DHT22;10898;48.072;11.682;2022-07-22T11:35:30;30.10;61.00
21473;DHT22;10898;48.072;11.682;2022-07-22T11:37:32;30.20;62.30
21473;DHT22;10898;48.072;11.682;2022-07-22T11:39:34;30.20;61.40
21473;DHT22;10898;48.072;11.682;2022-07-22T11:41:37;30.20;61.50
21473;DHT22;10898;48.072;11.682;2022-07-22T11:43:48;30.30;62.00
21473;DHT22;10898;48.072;11.682;2022-07-22T11:45:57;30.40;62.40
21473;DHT22;10898;48.072;11.682;2022-07-22T11:48:07;30.40;60.80
21473;DHT22;10898;48.072;11.682;2022-07-22T11:50:09;30.40;59.20
21473;DHT22;10898;48.072;11.682;2022-07-22T11:52:11;30.50;59.10
21473;DHT22;10898;48.072;11.682;2022-07-22T11:54:15;30.50;59.70
21473;DHT22;10898;48.072;11.682;2022-07-22T11:56:17;30.60;59.90
21473;DHT22;10898;48.072;11.682;2022-07-22T11:58:32;30.60;59.80
21473;DHT22;10898;48.072;11.682;2022-07-22T12:00:34;30.60;59.50
21473;DHT22;10898;48.072;11.682;2022-07-22T12:02:36;30.60;58.60
21473;DHT22;10898;48.072;11.682;2022-07-22T12:04:38;30.60;58.30
21473;DHT22;10898;48.072;11.682;2022-07-22T12:06:41;30.60;60.00
21473;DHT22;10898;48.072;11.682;2022-07-22T12:08:56;30.70;59.00
21473;DHT22;10898;48.072;11.682;2022-07-22T12:11:03;30.70;59.80
21473;DHT22;10898;48.072;11.682;2022-07-22T12:13:05;30.70;59.80
21473;DHT22;10898;48.072;11.682;2022-07-22T12:15:07;30.70;58.60
21473;DHT22;10898;48.072;11.682;2022-07-22T12:17:29;30.80;59.50
21473;DHT22;10898;48.072;11.682;2022-07-22T12:19:32;30.80;58.70
21473;DHT22;10898;48.072;11.682;2022-07-22T12:21:54;30.90;58.80
21473;DHT22;10898;48.072;11.682;2022-07-22T12:24:00;31.00;58.30
21473;DHT22;10898;48.072;11.682;2022-07-22T12:26:02;31.10;58.10
21473;DHT22;10898;48.072;11.682;2022-07-22T12:28:04;31.20;57.90
21473;DHT22;10898;48.072;11.682;2022-07-22T12:30:15;31.30;58.50
21473;DHT22;10898;48.072;11.682;2022-07-22T12:36:50;31.30;57.60
21473;DHT22;10898;48.072;11.682;2022-07-22T12:38:52;31.30;56.80
21473;DHT22;10898;48.072;11.682;2022-07-22T12:40:54;31.30;58.50
21473;DHT22;10898;48.072;11.682;2022-07-22T12:43:00;31.40;58.70
21473;DHT22;10898;48.072;11.682;2022-07-22T12:45:04;31.50;58.90
21473;DHT22;10898;48.072;11.682;2022-07-22T12:47:06;31.50;58.30
21473;DHT22;10898;48.072;11.682;2022-07-22T12:49:09;31.60;59.90
21473;DHT22;10898;48.072;11.682;2022-07-22T12:51:12;31.70;58.00
21473;DHT22;10898;48.072;11.682;2022-07-22T12:53:15;31.70;59.10
21473;DHT22;10898;48.072;11.682;2022-07-22T12:55:19;31.80;57.90
21473;DHT22;10898;48.072;11.682;2022-07-22T12:57:21;31.90;59.00
21473;DHT22;10898;48.072;11.682;2022-07-22T12:59:23;31.90;57.50
21473;DHT22;10898;48.072;11.682;2022-07-22T13:01:25;32.00;58.80
21473;DHT22;10898;48.072;11.682;2022-07-22T13:03:28;32.10;58.60
21473;DHT22;10898;48.072;11.682;2022-07-22T13:05:32;32.20;58.60